Check out our new BloomSky Weather System.

Active alerts

Houston, TX
  Details for Houston, TX Dense Fog Advisory


Thunder radar  blitzortung!


Rain radar more information rain snow radar


Visit our other weather sites:

Template documentation
and downloads

And another site



Weather Underground History page Text

Daily Summary for February 28, 2017 Units:  English    Metric   Both
« Previous Day
Next Day »
Daily Weekly Monthly Yearly Custom
  High: Low: Average:
Temperature: 82.8 °F 72.1 °F 76.4 °F
Dew Point: 71.8 °F 68.7 °F 70.7 °F
Humidity: 95 % 63 % 83 %
Wind Speed: 14.0 mph 1.0 mph 6 mph
Wind Gust: 23.0 mph - -
Wind:- - SSE
Pressure: 30.00 in 29.85 in -
Precipitation: 0.00 in    
Historical Graphs
 
 
Tabular Data for February 28, 2017
Time Temperature Dew Point Pressure Wind Wind Speed Wind Gust Humidity Rainfall Rate (Hourly)
00:05 73.6 °F 71.1 °F 29.95 in SE 4.0 mph 11.0 mph 92 % 0.00 in
00:10 73.6 °F 71.1 °F 29.95 in SE 5.0 mph 10.0 mph 92 % 0.00 in
00:15 73.6 °F 71.1 °F 29.95 in SSE 2.0 mph 9.0 mph 92 % 0.00 in
00:20 73.6 °F 71.1 °F 29.95 in South 6.0 mph 9.0 mph 92 % 0.00 in
00:25 73.6 °F 71.1 °F 29.96 in South 6.0 mph 9.0 mph 92 % 0.00 in
00:30 73.6 °F 71.1 °F 29.96 in SE 5.0 mph 9.0 mph 92 % 0.00 in
00:35 73.6 °F 71.1 °F 29.95 in SE 9.0 mph 9.0 mph 92 % 0.00 in
00:40 73.6 °F 71.1 °F 29.96 in SE 9.0 mph 11.0 mph 92 % 0.00 in
00:45 73.8 °F 71.2 °F 29.96 in SE 8.0 mph 11.0 mph 92 % 0.00 in
00:50 73.8 °F 71.2 °F 29.96 in SSE 5.0 mph 12.0 mph 92 % 0.00 in
00:55 73.8 °F 71.2 °F 29.96 in SSW 4.0 mph 12.0 mph 92 % 0.00 in
01:00 73.6 °F 71.1 °F 29.95 in South 3.0 mph 12.0 mph 92 % 0.00 in
01:05 73.6 °F 71.1 °F 29.95 in East 4.0 mph 11.0 mph 92 % 0.00 in
01:10 73.4 °F 70.9 °F 29.95 in SSE 7.0 mph 11.0 mph 92 % 0.00 in
01:15 73.2 °F 71.1 °F 29.95 in SSE 6.0 mph 13.0 mph 93 % 0.00 in
01:20 73.2 °F 71.1 °F 29.95 in SSE 4.0 mph 13.0 mph 93 % 0.00 in
01:25 73.2 °F 71.1 °F 29.95 in SSE 5.0 mph 13.0 mph 93 % 0.00 in
01:30 73.2 °F 71.1 °F 29.95 in South 9.0 mph 13.0 mph 93 % 0.00 in
01:35 73.2 °F 71.1 °F 29.95 in SSE 6.0 mph 13.0 mph 93 % 0.00 in
01:40 73.2 °F 71.1 °F 29.95 in SSE 3.0 mph 12.0 mph 93 % 0.00 in
01:45 73.2 °F 71.1 °F 29.96 in SSE 6.0 mph 12.0 mph 93 % 0.00 in
01:50 73.2 °F 71.1 °F 29.96 in SW 4.0 mph 12.0 mph 93 % 0.00 in
01:56 73.2 °F 71.1 °F 29.96 in SE 3.0 mph 9.0 mph 93 % 0.00 in
02:01 73.2 °F 71.1 °F 29.96 in South 6.0 mph 9.0 mph 93 % 0.00 in
02:06 73.2 °F 71.1 °F 29.95 in South 3.0 mph 9.0 mph 93 % 0.00 in
02:11 73.2 °F 71.1 °F 29.95 in SSE 3.0 mph 8.0 mph 93 % 0.00 in
02:16 73.2 °F 71.1 °F 29.95 in SE 6.0 mph 9.0 mph 93 % 0.00 in
02:21 73.2 °F 71.1 °F 29.95 in SSE 5.0 mph 9.0 mph 93 % 0.00 in
02:26 73.2 °F 71.1 °F 29.94 in SSE 3.0 mph 9.0 mph 93 % 0.00 in
02:31 73.2 °F 71.1 °F 29.95 in ESE 5.0 mph 8.0 mph 93 % 0.00 in
02:36 73.2 °F 71.1 °F 29.94 in SE 4.0 mph 8.0 mph 93 % 0.00 in
02:41 73.2 °F 71.1 °F 29.94 in South 4.0 mph 8.0 mph 93 % 0.00 in
02:46 73.2 °F 71.1 °F 29.94 in South 3.0 mph 9.0 mph 93 % 0.00 in
02:51 73.2 °F 71.1 °F 29.94 in SSW 5.0 mph 9.0 mph 93 % 0.00 in
02:56 73.4 °F 71.2 °F 29.94 in SSE 6.0 mph 9.0 mph 93 % 0.00 in
03:01 73.4 °F 71.2 °F 29.94 in South 1.0 mph 8.0 mph 93 % 0.00 in
03:06 73.4 °F 71.2 °F 29.94 in SE 2.0 mph 8.0 mph 93 % 0.00 in
03:11 73.6 °F 71.4 °F 29.94 in SSE 5.0 mph 8.0 mph 93 % 0.00 in
03:16 73.6 °F 71.4 °F 29.94 in SE 2.0 mph 8.0 mph 93 % 0.00 in
03:21 73.6 °F 71.4 °F 29.94 in SSE 4.0 mph 7.0 mph 93 % 0.00 in
03:26 73.6 °F 71.4 °F 29.94 in SSW 3.0 mph 7.0 mph 93 % 0.00 in
03:31 73.6 °F 71.4 °F 29.94 in SSE 4.0 mph 8.0 mph 93 % 0.00 in
03:36 73.6 °F 71.4 °F 29.94 in SSE 4.0 mph 8.0 mph 93 % 0.00 in
03:41 73.6 °F 71.8 °F 29.94 in South 8.0 mph 8.0 mph 94 % 0.00 in
03:46 73.6 °F 71.8 °F 29.94 in SSE 2.0 mph 9.0 mph 94 % 0.00 in
03:51 73.4 °F 71.6 °F 29.94 in ESE 2.0 mph 9.0 mph 94 % 0.00 in
03:56 73.4 °F 71.6 °F 29.95 in SSE 3.0 mph 9.0 mph 94 % 0.00 in
04:01 73.4 °F 71.6 °F 29.95 in SE 3.0 mph 6.0 mph 94 % 0.00 in
04:06 73.2 °F 71.4 °F 29.95 in SE 2.0 mph 6.0 mph 94 % 0.00 in
04:11 73.2 °F 71.4 °F 29.95 in South 2.0 mph 6.0 mph 94 % 0.00 in
04:16 73.2 °F 71.8 °F 29.94 in SE 3.0 mph 6.0 mph 95 % 0.00 in
04:21 73.0 °F 71.6 °F 29.94 in SE 4.0 mph 7.0 mph 95 % 0.00 in
04:26 73.0 °F 71.6 °F 29.94 in SE 4.0 mph 7.0 mph 95 % 0.00 in
04:31 73.0 °F 71.6 °F 29.95 in SE 3.0 mph 7.0 mph 95 % 0.00 in
04:37 73.0 °F 71.6 °F 29.94 in SE 2.0 mph 6.0 mph 95 % 0.00 in
04:42 73.0 °F 71.6 °F 29.94 in SSE 3.0 mph 6.0 mph 95 % 0.00 in
04:47 73.0 °F 71.6 °F 29.94 in SE 7.0 mph 7.0 mph 95 % 0.00 in
04:52 73.0 °F 71.6 °F 29.94 in South 6.0 mph 7.0 mph 95 % 0.00 in
04:57 73.0 °F 71.6 °F 29.94 in SE 4.0 mph 8.0 mph 95 % 0.00 in
05:02 73.0 °F 71.6 °F 29.94 in SSE 4.0 mph 8.0 mph 95 % 0.00 in
05:07 73.0 °F 71.6 °F 29.94 in SE 4.0 mph 11.0 mph 95 % 0.00 in
05:12 73.0 °F 71.6 °F 29.93 in SE 6.0 mph 11.0 mph 95 % 0.00 in
05:17 73.0 °F 71.6 °F 29.94 in ESE 3.0 mph 11.0 mph 95 % 0.00 in
05:22 72.9 °F 71.4 °F 29.93 in SSE 3.0 mph 9.0 mph 95 % 0.00 in
05:27 72.9 °F 71.4 °F 29.94 in SE 4.0 mph 9.0 mph 95 % 0.00 in
05:32 72.9 °F 71.4 °F 29.94 in ESE 5.0 mph 8.0 mph 95 % 0.00 in
05:37 72.9 °F 71.4 °F 29.94 in SE 3.0 mph 8.0 mph 95 % 0.00 in
05:42 73.0 °F 71.6 °F 29.94 in ESE 3.0 mph 9.0 mph 95 % 0.00 in
05:47 73.0 °F 71.6 °F 29.94 in SSW 4.0 mph 9.0 mph 95 % 0.00 in
05:52 72.9 °F 71.4 °F 29.95 in SE 3.0 mph 9.0 mph 95 % 0.00 in
05:58 72.9 °F 71.4 °F 29.95 in SSE 2.0 mph 9.0 mph 95 % 0.00 in
06:03 72.9 °F 71.4 °F 29.95 in SE 2.0 mph 9.0 mph 95 % 0.00 in
06:08 72.9 °F 71.4 °F 29.95 in SSE 2.0 mph 8.0 mph 95 % 0.00 in
06:13 72.9 °F 71.4 °F 29.96 in SE 6.0 mph 8.0 mph 95 % 0.00 in
06:18 72.9 °F 71.4 °F 29.96 in SSW 3.0 mph 8.0 mph 95 % 0.00 in
06:23 72.7 °F 70.9 °F 29.96 in SE 3.0 mph 8.0 mph 94 % 0.00 in
06:28 72.7 °F 70.9 °F 29.96 in ESE 5.0 mph 8.0 mph 94 % 0.00 in
06:33 72.5 °F 70.7 °F 29.96 in ESE 2.0 mph 9.0 mph 94 % 0.00 in
06:38 72.5 °F 70.7 °F 29.97 in SE 5.0 mph 9.0 mph 94 % 0.00 in
06:43 72.3 °F 70.5 °F 29.97 in South 1.0 mph 9.0 mph 94 % 0.00 in
06:48 72.3 °F 70.5 °F 29.97 in SSE 4.0 mph 8.0 mph 94 % 0.00 in
06:53 72.1 °F 70.3 °F 29.97 in SE 5.0 mph 8.0 mph 94 % 0.00 in
06:58 72.1 °F 70.3 °F 29.97 in SE 5.0 mph 6.0 mph 94 % 0.00 in
07:03 72.1 °F 70.3 °F 29.97 in SSE 2.0 mph 8.0 mph 94 % 0.00 in
07:08 72.1 °F 70.3 °F 29.97 in SE 3.0 mph 8.0 mph 94 % 0.00 in
07:13 72.1 °F 70.3 °F 29.97 in South 2.0 mph 8.0 mph 94 % 0.00 in
07:18 72.1 °F 70.3 °F 29.96 in SE 6.0 mph 8.0 mph 94 % 0.00 in
07:23 72.1 °F 70.3 °F 29.96 in SE 6.0 mph 8.0 mph 94 % 0.00 in
07:28 72.1 °F 70.3 °F 29.97 in SSE 5.0 mph 8.0 mph 94 % 0.00 in
07:33 72.1 °F 70.3 °F 29.97 in SSE 5.0 mph 8.0 mph 94 % 0.00 in
07:38 72.3 °F 70.5 °F 29.97 in SSE 3.0 mph 8.0 mph 94 % 0.00 in
07:43 72.7 °F 70.5 °F 29.97 in SSE 5.0 mph 9.0 mph 93 % 0.00 in
07:49 72.9 °F 70.7 °F 29.97 in SSE 4.0 mph 9.0 mph 93 % 0.00 in
07:54 73.0 °F 70.9 °F 29.97 in SSE 5.0 mph 9.0 mph 93 % 0.00 in
07:59 73.2 °F 70.7 °F 29.98 in SW 3.0 mph 9.0 mph 92 % 0.00 in
08:04 73.2 °F 70.5 °F 29.98 in SE 5.0 mph 9.0 mph 91 % 0.00 in
08:09 73.4 °F 70.5 °F 29.98 in SE 7.0 mph 9.0 mph 91 % 0.00 in
08:14 73.4 °F 70.5 °F 29.98 in SE 8.0 mph 9.0 mph 91 % 0.00 in
08:19 73.4 °F 70.5 °F 29.98 in ESE 6.0 mph 10.0 mph 91 % 0.00 in
08:24 73.8 °F 70.9 °F 29.99 in SE 2.0 mph 10.0 mph 91 % 0.00 in
08:29 73.9 °F 70.9 °F 29.99 in South 4.0 mph 10.0 mph 90 % 0.00 in
08:34 73.8 °F 70.7 °F 29.98 in SE 6.0 mph 9.0 mph 90 % 0.00 in
08:39 73.8 °F 70.3 °F 29.99 in East 5.0 mph 10.0 mph 89 % 0.00 in
08:44 73.9 °F 70.5 °F 29.98 in SSE 5.0 mph 10.0 mph 89 % 0.00 in
08:49 73.9 °F 70.2 °F 29.99 in SE 8.0 mph 10.0 mph 88 % 0.00 in
08:51 73.9 °F 70.2 °F 29.99 in SSW 9.0 mph 11.0 mph 88 % 0.00 in
08:56 73.9 °F 69.8 °F 29.99 in South 8.0 mph 14.0 mph 87 % 0.00 in
09:01 74.3 °F 70.2 °F 29.99 in SE 6.0 mph 14.0 mph 87 % 0.00 in
09:06 74.5 °F 70.3 °F 29.99 in SSE 6.0 mph 14.0 mph 87 % 0.00 in
09:12 75.0 °F 70.5 °F 29.99 in South 4.0 mph 13.0 mph 86 % 0.00 in
09:17 75.0 °F 70.2 °F 29.99 in SE 8.0 mph 13.0 mph 85 % 0.00 in
09:22 75.2 °F 70.3 °F 30.00 in SE 8.0 mph 16.0 mph 85 % 0.00 in
09:27 75.4 °F 70.2 °F 30.00 in SSE 8.0 mph 16.0 mph 84 % 0.00 in
09:32 75.4 °F 70.2 °F 30.00 in SE 10.0 mph 16.0 mph 84 % 0.00 in
09:37 75.4 °F 70.2 °F 30.00 in SSW 9.0 mph 16.0 mph 84 % 0.00 in
09:42 75.7 °F 69.8 °F 30.00 in SE 13.0 mph 16.0 mph 82 % 0.00 in
09:47 75.7 °F 69.4 °F 29.99 in South 8.0 mph 16.0 mph 81 % 0.00 in
09:52 75.9 °F 70.0 °F 29.99 in SSE 9.0 mph 17.0 mph 82 % 0.00 in
09:57 76.5 °F 70.2 °F 29.99 in East 10.0 mph 17.0 mph 81 % 0.00 in
10:02 76.5 °F 70.2 °F 29.99 in SE 4.0 mph 17.0 mph 81 % 0.00 in
10:07 76.5 °F 70.2 °F 30.00 in SSW 7.0 mph 15.0 mph 81 % 0.00 in
10:12 76.8 °F 70.5 °F 30.00 in East 4.0 mph 15.0 mph 81 % 0.00 in
10:17 77.2 °F 70.5 °F 30.00 in South 6.0 mph 16.0 mph 80 % 0.00 in
10:22 77.4 °F 70.3 °F 30.00 in South 8.0 mph 16.0 mph 79 % 0.00 in
10:27 77.7 °F 69.6 °F 30.00 in ESE 12.0 mph 16.0 mph 76 % 0.00 in
10:32 78.3 °F 70.5 °F 30.00 in South 9.0 mph 16.0 mph 77 % 0.00 in
10:37 78.6 °F 70.0 °F 30.00 in ESE 6.0 mph 16.0 mph 75 % 0.00 in
10:42 79.0 °F 70.0 °F 30.00 in South 10.0 mph 16.0 mph 74 % 0.00 in
10:47 79.0 °F 69.6 °F 30.00 in South 4.0 mph 15.0 mph 73 % 0.00 in
10:52 79.0 °F 70.0 °F 29.99 in SE 7.0 mph 16.0 mph 74 % 0.00 in
10:57 78.6 °F 70.0 °F 29.99 in ESE 9.0 mph 16.0 mph 75 % 0.00 in
11:02 79.0 °F 70.3 °F 29.99 in SSE 12.0 mph 16.0 mph 75 % 0.00 in
11:07 79.2 °F 70.5 °F 29.99 in SW 12.0 mph 16.0 mph 75 % 0.00 in
11:12 79.0 °F 70.0 °F 29.99 in SE 9.0 mph 16.0 mph 74 % 0.00 in
11:17 78.6 °F 70.3 °F 29.99 in SE 7.0 mph 16.0 mph 76 % 0.00 in
11:22 78.6 °F 70.3 °F 29.98 in SSE 6.0 mph 16.0 mph 76 % 0.00 in
11:27 78.6 °F 70.9 °F 29.98 in South 9.0 mph 17.0 mph 77 % 0.00 in
11:32 79.0 °F 71.1 °F 29.98 in SE 10.0 mph 17.0 mph 77 % 0.00 in
11:37 79.3 °F 71.4 °F 29.98 in SE 11.0 mph 17.0 mph 77 % 0.00 in
11:42 79.9 °F 71.6 °F 29.97 in ESE 11.0 mph 15.0 mph 76 % 0.00 in
11:47 80.1 °F 71.4 °F 29.96 in SSE 11.0 mph 18.0 mph 75 % 0.00 in
11:52 80.2 °F 71.6 °F 29.96 in SSE 11.0 mph 18.0 mph 75 % 0.00 in
11:57 79.9 °F 71.2 °F 29.95 in SE 6.0 mph 18.0 mph 75 % 0.00 in
12:02 80.1 °F 71.4 °F 29.95 in South 7.0 mph 17.0 mph 75 % 0.00 in
12:07 80.2 °F 71.2 °F 29.95 in SE 10.0 mph 17.0 mph 74 % 0.00 in
12:12 80.2 °F 70.9 °F 29.95 in South 9.0 mph 17.0 mph 73 % 0.00 in
12:17 80.2 °F 70.3 °F 29.95 in SE 10.0 mph 17.0 mph 72 % 0.00 in
12:22 80.4 °F 70.9 °F 29.94 in East 9.0 mph 17.0 mph 73 % 0.00 in
12:27 80.8 °F 70.5 °F 29.94 in SE 9.0 mph 17.0 mph 71 % 0.00 in
12:32 80.8 °F 70.2 °F 29.94 in SE 7.0 mph 17.0 mph 70 % 0.00 in
12:37 81.0 °F 70.7 °F 29.94 in ENE 11.0 mph 15.0 mph 71 % 0.00 in
12:42 81.1 °F 70.0 °F 29.93 in SE 12.0 mph 17.0 mph 69 % 0.00 in
12:47 81.1 °F 69.6 °F 29.93 in SE 13.0 mph 17.0 mph 68 % 0.00 in
12:52 81.3 °F 70.5 °F 29.93 in SE 9.0 mph 17.0 mph 70 % 0.00 in
12:57 81.7 °F 70.5 °F 29.92 in SE 7.0 mph 17.0 mph 69 % 0.00 in
13:02 81.7 °F 70.2 °F 29.92 in SE 10.0 mph 17.0 mph 68 % 0.00 in
13:07 81.7 °F 70.2 °F 29.92 in South 8.0 mph 16.0 mph 68 % 0.00 in
13:12 81.7 °F 70.5 °F 29.92 in SE 4.0 mph 18.0 mph 69 % 0.00 in
13:17 82.2 °F 70.2 °F 29.92 in SE 11.0 mph 18.0 mph 67 % 0.00 in
13:22 82.8 °F 70.2 °F 29.91 in South 6.0 mph 18.0 mph 66 % 0.00 in
13:27 82.4 °F 70.0 °F 29.91 in SSW 8.0 mph 18.0 mph 66 % 0.00 in
13:32 82.2 °F 69.8 °F 29.91 in SSE 9.0 mph 18.0 mph 66 % 0.00 in
13:37 82.4 °F 70.0 °F 29.91 in SE 8.0 mph 18.0 mph 66 % 0.00 in
13:42 82.6 °F 69.6 °F 29.89 in SE 8.0 mph 16.0 mph 65 % 0.00 in
13:47 82.2 °F 68.9 °F 29.90 in South 8.0 mph 20.0 mph 64 % 0.00 in
13:52 82.2 °F 69.3 °F 29.90 in SSE 9.0 mph 20.0 mph 65 % 0.00 in
13:57 82.4 °F 70.0 °F 29.90 in SE 7.0 mph 20.0 mph 66 % 0.00 in
14:02 82.4 °F 70.0 °F 29.90 in SSW 10.0 mph 16.0 mph 66 % 0.00 in
14:07 82.6 °F 69.1 °F 29.89 in SSE 11.0 mph 16.0 mph 64 % 0.00 in
14:12 82.2 °F 68.9 °F 29.89 in ESE 8.0 mph 20.0 mph 64 % 0.00 in
14:13 82.2 °F 68.9 °F 29.89 in South 6.0 mph 20.0 mph 64 % 0.00 in
14:18 82.0 °F 69.1 °F 29.89 in SSE 11.0 mph 20.0 mph 65 % 0.00 in
14:23 82.4 °F 69.1 °F 29.88 in SSE 8.0 mph 23.0 mph 64 % 0.00 in
14:28 82.6 °F 68.7 °F 29.88 in SSE 10.0 mph 23.0 mph 63 % 0.00 in
14:33 82.2 °F 69.3 °F 29.89 in SSW 8.0 mph 23.0 mph 65 % 0.00 in
14:38 82.2 °F 68.9 °F 29.89 in SE 8.0 mph 19.0 mph 64 % 0.00 in
14:43 82.0 °F 69.1 °F 29.89 in SSE 9.0 mph 19.0 mph 65 % 0.00 in
14:48 82.0 °F 69.1 °F 29.88 in SE 5.0 mph 19.0 mph 65 % 0.00 in
14:53 82.2 °F 69.3 °F 29.88 in South 9.0 mph 19.0 mph 65 % 0.00 in
14:58 82.0 °F 69.1 °F 29.87 in South 11.0 mph 18.0 mph 65 % 0.00 in
15:03 81.7 °F 69.6 °F 29.86 in SSE 8.0 mph 18.0 mph 67 % 0.00 in
15:08 81.5 °F 69.4 °F 29.86 in SE 13.0 mph 21.0 mph 67 % 0.00 in
15:13 81.5 °F 69.4 °F 29.86 in South 13.0 mph 21.0 mph 67 % 0.00 in
15:18 81.3 °F 69.8 °F 29.86 in SSE 7.0 mph 21.0 mph 68 % 0.00 in
15:23 81.3 °F 69.3 °F 29.87 in WSW 9.0 mph 20.0 mph 67 % 0.00 in
15:28 81.3 °F 69.8 °F 29.87 in SSW 11.0 mph 20.0 mph 68 % 0.00 in
15:33 81.1 °F 69.6 °F 29.86 in SSW 11.0 mph 18.0 mph 68 % 0.00 in
15:38 81.1 °F 70.0 °F 29.87 in SE 11.0 mph 18.0 mph 69 % 0.00 in
15:43 81.7 °F 70.5 °F 29.86 in SE 12.0 mph 18.0 mph 69 % 0.00 in
15:48 81.9 °F 70.7 °F 29.86 in SSE 8.0 mph 17.0 mph 69 % 0.00 in
15:53 81.7 °F 70.5 °F 29.86 in South 12.0 mph 14.0 mph 69 % 0.00 in
15:58 81.1 °F 70.0 °F 29.86 in South 14.0 mph 15.0 mph 69 % 0.00 in
16:03 81.0 °F 70.2 °F 29.86 in SSE 7.0 mph 19.0 mph 70 % 0.00 in
16:08 80.8 °F 70.5 °F 29.86 in SE 8.0 mph 19.0 mph 71 % 0.00 in
16:13 80.8 °F 70.2 °F 29.86 in SE 9.0 mph 19.0 mph 70 % 0.00 in
16:18 80.8 °F 70.5 °F 29.86 in SSE 7.0 mph 16.0 mph 71 % 0.00 in
16:23 81.0 °F 70.2 °F 29.86 in SSE 6.0 mph 16.0 mph 70 % 0.00 in
16:28 80.8 °F 70.2 °F 29.86 in SE 11.0 mph 16.0 mph 70 % 0.00 in
16:33 80.4 °F 69.8 °F 29.86 in SE 7.0 mph 15.0 mph 70 % 0.00 in
16:38 80.2 °F 70.0 °F 29.86 in South 7.0 mph 15.0 mph 71 % 0.00 in
16:43 80.2 °F 70.3 °F 29.86 in South 7.0 mph 16.0 mph 72 % 0.00 in
16:48 80.1 °F 69.8 °F 29.86 in South 7.0 mph 16.0 mph 71 % 0.00 in
16:54 80.1 °F 70.2 °F 29.86 in SSE 9.0 mph 16.0 mph 72 % 0.00 in
16:59 80.1 °F 70.2 °F 29.86 in South 5.0 mph 13.0 mph 72 % 0.00 in
17:04 80.1 °F 70.7 °F 29.86 in SE 4.0 mph 14.0 mph 73 % 0.00 in
17:09 80.1 °F 70.7 °F 29.86 in South 6.0 mph 14.0 mph 73 % 0.00 in
17:14 80.1 °F 71.1 °F 29.86 in SE 5.0 mph 14.0 mph 74 % 0.00 in
17:19 79.9 °F 70.9 °F 29.86 in SSE 8.0 mph 14.0 mph 74 % 0.00 in
17:24 79.7 °F 70.7 °F 29.86 in SE 6.0 mph 14.0 mph 74 % 0.00 in
17:29 79.5 °F 70.5 °F 29.87 in SSW 4.0 mph 14.0 mph 74 % 0.00 in
17:34 79.5 °F 70.5 °F 29.87 in SSE 4.0 mph 11.0 mph 74 % 0.00 in
17:39 79.3 °F 70.7 °F 29.86 in SSE 7.0 mph 11.0 mph 75 % 0.00 in
17:44 79.3 °F 70.7 °F 29.86 in South 5.0 mph 11.0 mph 75 % 0.00 in
17:49 79.2 °F 70.5 °F 29.86 in SSE 8.0 mph 11.0 mph 75 % 0.00 in
17:54 79.2 °F 70.5 °F 29.86 in SSW 6.0 mph 11.0 mph 75 % 0.00 in
17:59 79.0 °F 70.3 °F 29.86 in South 6.0 mph 11.0 mph 75 % 0.00 in
18:04 78.6 °F 70.3 °F 29.86 in SSW 2.0 mph 10.0 mph 76 % 0.00 in
18:09 78.4 °F 70.7 °F 29.86 in SE 5.0 mph 10.0 mph 77 % 0.00 in
18:14 78.3 °F 70.9 °F 29.86 in SE 3.0 mph 10.0 mph 78 % 0.00 in
18:19 78.1 °F 70.7 °F 29.87 in SSE 4.0 mph 7.0 mph 78 % 0.00 in
18:24 78.1 °F 71.1 °F 29.86 in SSW 5.0 mph 7.0 mph 79 % 0.00 in
18:29 77.9 °F 70.9 °F 29.87 in SSW 4.0 mph 7.0 mph 79 % 0.00 in
18:34 77.7 °F 70.3 °F 29.87 in SSW 6.0 mph 9.0 mph 78 % 0.00 in
18:40 77.5 °F 70.2 °F 29.86 in SSE 4.0 mph 10.0 mph 78 % 0.00 in
18:45 77.5 °F 70.2 °F 29.86 in SSE 9.0 mph 12.0 mph 78 % 0.00 in
18:50 77.5 °F 70.2 °F 29.86 in WSW 6.0 mph 12.0 mph 78 % 0.00 in
18:55 77.5 °F 70.2 °F 29.86 in SSE 8.0 mph 12.0 mph 78 % 0.00 in
19:00 77.5 °F 70.2 °F 29.85 in South 10.0 mph 13.0 mph 78 % 0.00 in
19:05 77.5 °F 70.5 °F 29.85 in South 7.0 mph 13.0 mph 79 % 0.00 in
19:10 77.4 °F 70.7 °F 29.86 in SSE 4.0 mph 11.0 mph 80 % 0.00 in
19:15 77.2 °F 70.5 °F 29.86 in WSW 3.0 mph 10.0 mph 80 % 0.00 in
19:20 77.2 °F 70.9 °F 29.85 in SSW 5.0 mph 8.0 mph 81 % 0.00 in
19:25 77.0 °F 70.7 °F 29.85 in South 2.0 mph 8.0 mph 81 % 0.00 in
19:30 76.8 °F 70.9 °F 29.85 in South 5.0 mph 9.0 mph 82 % 0.00 in
19:35 76.8 °F 70.9 °F 29.85 in South 10.0 mph 12.0 mph 82 % 0.00 in
19:40 76.8 °F 70.9 °F 29.86 in SSE 1.0 mph 12.0 mph 82 % 0.00 in
19:45 76.6 °F 70.7 °F 29.86 in SSW 4.0 mph 12.0 mph 82 % 0.00 in
19:50 76.6 °F 71.1 °F 29.86 in SE 6.0 mph 12.0 mph 83 % 0.00 in
19:55 76.6 °F 71.1 °F 29.86 in SSE 4.0 mph 15.0 mph 83 % 0.00 in
20:00 76.5 °F 70.9 °F 29.86 in South 8.0 mph 15.0 mph 83 % 0.00 in
20:05 76.5 °F 70.9 °F 29.86 in South 4.0 mph 15.0 mph 83 % 0.00 in
20:10 76.3 °F 71.1 °F 29.86 in South 2.0 mph 14.0 mph 84 % 0.00 in
20:15 76.3 °F 71.1 °F 29.86 in South 4.0 mph 10.0 mph 84 % 0.00 in
20:20 76.3 °F 71.4 °F 29.87 in South 3.0 mph 9.0 mph 85 % 0.00 in
20:25 76.3 °F 71.4 °F 29.87 in SSE 4.0 mph 13.0 mph 85 % 0.00 in
20:31 75.9 °F 71.1 °F 29.88 in SSE 7.0 mph 13.0 mph 85 % 0.00 in
20:36 75.9 °F 71.4 °F 29.88 in SSE 3.0 mph 13.0 mph 86 % 0.00 in
20:41 75.9 °F 71.4 °F 29.88 in SSE 3.0 mph 13.0 mph 86 % 0.00 in
20:46 75.9 °F 71.4 °F 29.88 in SE 6.0 mph 13.0 mph 86 % 0.00 in
20:51 75.9 °F 71.4 °F 29.88 in South 3.0 mph 13.0 mph 86 % 0.00 in
20:56 75.7 °F 71.2 °F 29.89 in South 3.0 mph 11.0 mph 86 % 0.00 in
21:01 75.7 °F 71.2 °F 29.89 in SW 2.0 mph 11.0 mph 86 % 0.00 in
21:06 75.7 °F 71.6 °F 29.89 in South 6.0 mph 11.0 mph 87 % 0.00 in
21:11 75.7 °F 71.6 °F 29.89 in South 8.0 mph 10.0 mph 87 % 0.00 in
21:16 75.6 °F 71.4 °F 29.89 in SSW 5.0 mph 11.0 mph 87 % 0.00 in
21:21 75.6 °F 71.4 °F 29.90 in South 3.0 mph 12.0 mph 87 % 0.00 in
21:26 75.6 °F 71.4 °F 29.90 in South 7.0 mph 12.0 mph 87 % 0.00 in
21:31 75.4 °F 71.2 °F 29.90 in South 5.0 mph 12.0 mph 87 % 0.00 in
21:36 75.4 °F 71.2 °F 29.90 in South 3.0 mph 11.0 mph 87 % 0.00 in
21:41 75.4 °F 71.2 °F 29.89 in SSE 5.0 mph 10.0 mph 87 % 0.00 in
21:46 75.4 °F 71.2 °F 29.90 in SE 5.0 mph 11.0 mph 87 % 0.00 in
21:51 75.4 °F 71.6 °F 29.90 in ESE 6.0 mph 11.0 mph 88 % 0.00 in
21:56 75.4 °F 71.2 °F 29.90 in South 3.0 mph 11.0 mph 87 % 0.00 in
22:01 75.2 °F 71.4 °F 29.90 in SSE 4.0 mph 10.0 mph 88 % 0.00 in
22:06 75.0 °F 71.2 °F 29.90 in SSE 4.0 mph 9.0 mph 88 % 0.00 in
22:11 75.0 °F 71.2 °F 29.90 in SSE 5.0 mph 8.0 mph 88 % 0.00 in
22:16 75.0 °F 71.2 °F 29.91 in SSE 3.0 mph 8.0 mph 88 % 0.00 in
22:22 74.8 °F 71.1 °F 29.91 in SSE 5.0 mph 8.0 mph 88 % 0.00 in
22:27 74.8 °F 71.1 °F 29.90 in South 4.0 mph 8.0 mph 88 % 0.00 in
22:32 74.8 °F 71.1 °F 29.90 in SSW 4.0 mph 8.0 mph 88 % 0.00 in
22:37 74.8 °F 71.1 °F 29.89 in SE 7.0 mph 8.0 mph 88 % 0.00 in
22:42 74.8 °F 71.4 °F 29.89 in SSE 7.0 mph 10.0 mph 89 % 0.00 in
22:47 74.8 °F 71.4 °F 29.88 in South 4.0 mph 10.0 mph 89 % 0.00 in
22:52 74.8 °F 71.4 °F 29.89 in South 7.0 mph 10.0 mph 89 % 0.00 in
22:57 74.7 °F 71.2 °F 29.89 in SSE 4.0 mph 10.0 mph 89 % 0.00 in
23:02 74.7 °F 71.2 °F 29.89 in South 4.0 mph 10.0 mph 89 % 0.00 in
23:07 74.7 °F 71.2 °F 29.89 in SSW 5.0 mph 8.0 mph 89 % 0.00 in
23:12 74.7 °F 71.2 °F 29.89 in SSE 4.0 mph 9.0 mph 89 % 0.00 in
23:17 74.7 °F 71.2 °F 29.89 in SSE 4.0 mph 9.0 mph 89 % 0.00 in
23:22 74.5 °F 71.1 °F 29.89 in SSE 7.0 mph 10.0 mph 89 % 0.00 in
23:27 74.5 °F 71.4 °F 29.89 in SE 6.0 mph 10.0 mph 90 % 0.00 in
23:32 74.5 °F 71.4 °F 29.88 in South 4.0 mph 10.0 mph 90 % 0.00 in
23:37 74.5 °F 71.4 °F 29.88 in SSE 4.0 mph 9.0 mph 90 % 0.00 in
23:42 74.5 °F 71.4 °F 29.88 in SSE 3.0 mph 9.0 mph 90 % 0.00 in
23:47 74.5 °F 71.4 °F 29.88 in SSW 7.0 mph 12.0 mph 90 % 0.00 in
23:52 74.5 °F 71.4 °F 29.89 in South 5.0 mph 12.0 mph 90 % 0.00 in
23:57 74.5 °F 71.4 °F 29.89 in SE 3.0 mph 12.0 mph 90 % 0.00 in
Spring, Texas: Villages of Bridgestone
Compliments of Weather Underground - 2.75 mb

Script developed by  Jim McMurry - jmcmurry@mwt.net Adapted for the template by  Wim van der Kuil - Leuven-Template.eu

You find our weather info also at:

UK Metoffice

WeatherCloud

Weather Underground

Mid-South Weather Network

AWEKAS

Citizen Weather Observer Program (CWOP)

HAMweather, WeatherForYou, PWS Weather

Equipment we use:

Weather-station
Davis Vantage Vue

Weather-program
Meteohub

Weather-server
Debian 7.9 x86 (Guest)

Provider
DreamHost

Davis Vantage Vue

Meteohub

Debian 7.9 x86 (Guest)

DreamHost